sensor_id;sensor_type;location;lat;lon;timestamp;P1;durP1;ratioP1;P2;durP2;ratioP2
23684;SDS011;12020;51.384;6.908;2022-07-18T00:00:10;2.97;;;1.88;;
23684;SDS011;12020;51.384;6.908;2022-07-18T00:02:36;2.65;;;1.77;;
23684;SDS011;12020;51.384;6.908;2022-07-18T00:05:02;4.18;;;1.77;;
23684;SDS011;12020;51.384;6.908;2022-07-18T00:07:28;3.03;;;1.75;;
23684;SDS011;12020;51.384;6.908;2022-07-18T00:09:55;2.58;;;1.80;;
23684;SDS011;12020;51.384;6.908;2022-07-18T00:12:20;3.33;;;2.10;;
23684;SDS011;12020;51.384;6.908;2022-07-18T00:14:47;2.80;;;1.98;;
23684;SDS011;12020;51.384;6.908;2022-07-18T00:17:13;2.50;;;1.80;;
23684;SDS011;12020;51.384;6.908;2022-07-18T00:19:39;3.17;;;1.80;;
23684;SDS011;12020;51.384;6.908;2022-07-18T00:22:05;2.45;;;1.75;;
23684;SDS011;12020;51.384;6.908;2022-07-18T00:24:31;2.42;;;1.85;;
23684;SDS011;12020;51.384;6.908;2022-07-18T00:26:57;2.53;;;1.80;;
23684;SDS011;12020;51.384;6.908;2022-07-18T00:29:24;3.42;;;2.00;;
23684;SDS011;12020;51.384;6.908;2022-07-18T00:31:52;3.95;;;1.90;;
23684;SDS011;12020;51.384;6.908;2022-07-18T00:34:18;4.00;;;2.10;;
23684;SDS011;12020;51.384;6.908;2022-07-18T00:36:44;3.00;;;1.80;;
23684;SDS011;12020;51.384;6.908;2022-07-18T00:39:10;3.83;;;1.97;;
23684;SDS011;12020;51.384;6.908;2022-07-18T00:41:35;2.33;;;1.70;;
23684;SDS011;12020;51.384;6.908;2022-07-18T00:44:01;3.30;;;1.60;;
23684;SDS011;12020;51.384;6.908;2022-07-18T00:46:28;3.10;;;1.63;;
23684;SDS011;12020;51.384;6.908;2022-07-18T00:48:54;2.70;;;1.70;;
23684;SDS011;12020;51.384;6.908;2022-07-18T00:51:21;4.82;;;1.90;;
23684;SDS011;12020;51.384;6.908;2022-07-18T00:53:47;4.00;;;1.90;;
23684;SDS011;12020;51.384;6.908;2022-07-18T00:56:17;2.78;;;1.70;;
23684;SDS011;12020;51.384;6.908;2022-07-18T00:58:45;3.75;;;1.70;;
23684;SDS011;12020;51.384;6.908;2022-07-18T01:01:11;1.92;;;1.50;;
23684;SDS011;12020;51.384;6.908;2022-07-18T01:03:56;2.72;;;1.80;;
23684;SDS011;12020;51.384;6.908;2022-07-18T01:06:21;2.92;;;1.80;;
23684;SDS011;12020;51.384;6.908;2022-07-18T01:08:47;2.55;;;1.60;;
23684;SDS011;12020;51.384;6.908;2022-07-18T01:11:13;2.53;;;1.73;;
23684;SDS011;12020;51.384;6.908;2022-07-18T01:13:40;2.30;;;1.70;;
23684;SDS011;12020;51.384;6.908;2022-07-18T01:16:06;4.75;;;2.03;;
23684;SDS011;12020;51.384;6.908;2022-07-18T01:18:32;3.47;;;1.77;;
23684;SDS011;12020;51.384;6.908;2022-07-18T01:20:58;2.70;;;1.80;;
23684;SDS011;12020;51.384;6.908;2022-07-18T01:23:24;3.67;;;1.80;;
23684;SDS011;12020;51.384;6.908;2022-07-18T01:25:50;3.13;;;1.70;;
23684;SDS011;12020;51.384;6.908;2022-07-18T01:28:16;2.30;;;1.90;;
23684;SDS011;12020;51.384;6.908;2022-07-18T01:30:43;3.20;;;1.90;;
23684;SDS011;12020;51.384;6.908;2022-07-18T01:33:09;2.42;;;1.70;;
23684;SDS011;12020;51.384;6.908;2022-07-18T01:35:35;2.78;;;1.67;;
23684;SDS011;12020;51.384;6.908;2022-07-18T01:38:01;2.08;;;1.88;;
23684;SDS011;12020;51.384;6.908;2022-07-18T01:40:28;3.67;;;1.83;;
23684;SDS011;12020;51.384;6.908;2022-07-18T01:42:54;3.00;;;1.60;;
23684;SDS011;12020;51.384;6.908;2022-07-18T01:45:20;2.63;;;1.70;;
23684;SDS011;12020;51.384;6.908;2022-07-18T01:47:46;2.85;;;1.70;;
23684;SDS011;12020;51.384;6.908;2022-07-18T01:50:13;2.15;;;1.60;;
23684;SDS011;12020;51.384;6.908;2022-07-18T01:52:39;2.05;;;1.70;;
23684;SDS011;12020;51.384;6.908;2022-07-18T01:55:06;2.13;;;1.70;;
23684;SDS011;12020;51.384;6.908;2022-07-18T01:57:34;2.63;;;1.80;;
23684;SDS011;12020;51.384;6.908;2022-07-18T02:00:00;3.50;;;1.77;;
23684;SDS011;12020;51.384;6.908;2022-07-18T02:02:26;3.28;;;1.90;;
23684;SDS011;12020;51.384;6.908;2022-07-18T02:04:52;3.70;;;1.75;;
23684;SDS011;12020;51.384;6.908;2022-07-18T02:07:24;2.28;;;1.90;;
23684;SDS011;12020;51.384;6.908;2022-07-18T02:09:51;4.43;;;2.00;;
23684;SDS011;12020;51.384;6.908;2022-07-18T02:12:17;3.00;;;1.73;;
23684;SDS011;12020;51.384;6.908;2022-07-18T02:14:44;3.20;;;1.83;;
23684;SDS011;12020;51.384;6.908;2022-07-18T02:17:10;2.83;;;2.03;;
23684;SDS011;12020;51.384;6.908;2022-07-18T02:19:36;3.00;;;1.90;;
23684;SDS011;12020;51.384;6.908;2022-07-18T02:22:01;2.30;;;1.90;;
23684;SDS011;12020;51.384;6.908;2022-07-18T02:24:27;2.37;;;1.83;;
23684;SDS011;12020;51.384;6.908;2022-07-18T02:26:53;2.90;;;1.90;;
23684;SDS011;12020;51.384;6.908;2022-07-18T02:29:22;2.30;;;1.77;;
23684;SDS011;12020;51.384;6.908;2022-07-18T02:31:48;3.45;;;1.90;;
23684;SDS011;12020;51.384;6.908;2022-07-18T02:34:14;4.07;;;2.13;;
23684;SDS011;12020;51.384;6.908;2022-07-18T02:36:40;2.90;;;1.80;;
23684;SDS011;12020;51.384;6.908;2022-07-18T02:39:07;3.37;;;2.10;;
23684;SDS011;12020;51.384;6.908;2022-07-18T02:41:34;3.25;;;1.90;;
23684;SDS011;12020;51.384;6.908;2022-07-18T02:44:01;2.70;;;2.03;;
23684;SDS011;12020;51.384;6.908;2022-07-18T02:46:27;2.47;;;1.80;;
23684;SDS011;12020;51.384;6.908;2022-07-18T02:48:52;4.47;;;1.90;;
23684;SDS011;12020;51.384;6.908;2022-07-18T02:51:19;3.25;;;1.80;;
23684;SDS011;12020;51.384;6.908;2022-07-18T02:53:45;2.65;;;2.00;;
23684;SDS011;12020;51.384;6.908;2022-07-18T02:56:11;3.38;;;1.90;;
23684;SDS011;12020;51.384;6.908;2022-07-18T02:58:37;3.70;;;1.80;;
23684;SDS011;12020;51.384;6.908;2022-07-18T03:01:03;3.27;;;1.93;;
23684;SDS011;12020;51.384;6.908;2022-07-18T03:03:29;3.15;;;1.80;;
23684;SDS011;12020;51.384;6.908;2022-07-18T03:05:55;3.50;;;2.20;;
23684;SDS011;12020;51.384;6.908;2022-07-18T03:08:21;3.85;;;1.83;;
23684;SDS011;12020;51.384;6.908;2022-07-18T03:10:47;2.20;;;1.73;;
23684;SDS011;12020;51.384;6.908;2022-07-18T03:13:13;3.80;;;1.80;;
23684;SDS011;12020;51.384;6.908;2022-07-18T03:15:39;3.43;;;2.00;;
23684;SDS011;12020;51.384;6.908;2022-07-18T03:18:05;3.42;;;2.00;;
23684;SDS011;12020;51.384;6.908;2022-07-18T03:20:31;3.83;;;1.95;;
23684;SDS011;12020;51.384;6.908;2022-07-18T03:22:57;3.85;;;2.15;;
23684;SDS011;12020;51.384;6.908;2022-07-18T03:25:23;2.83;;;1.85;;
23684;SDS011;12020;51.384;6.908;2022-07-18T03:27:49;2.90;;;1.83;;
23684;SDS011;12020;51.384;6.908;2022-07-18T03:30:15;3.63;;;1.97;;
23684;SDS011;12020;51.384;6.908;2022-07-18T03:32:41;2.83;;;1.90;;
23684;SDS011;12020;51.384;6.908;2022-07-18T03:35:07;2.92;;;1.73;;
23684;SDS011;12020;51.384;6.908;2022-07-18T03:37:34;2.83;;;1.88;;
23684;SDS011;12020;51.384;6.908;2022-07-18T03:39:59;3.03;;;1.93;;
23684;SDS011;12020;51.384;6.908;2022-07-18T03:42:26;3.47;;;1.97;;
23684;SDS011;12020;51.384;6.908;2022-07-18T03:44:52;3.60;;;1.80;;
23684;SDS011;12020;51.384;6.908;2022-07-18T03:47:17;2.77;;;1.70;;
23684;SDS011;12020;51.384;6.908;2022-07-18T03:49:43;2.65;;;1.73;;
23684;SDS011;12020;51.384;6.908;2022-07-18T03:52:10;3.55;;;1.90;;
23684;SDS011;12020;51.384;6.908;2022-07-18T03:54:36;3.40;;;2.00;;
23684;SDS011;12020;51.384;6.908;2022-07-18T03:57:02;3.50;;;2.00;;
23684;SDS011;12020;51.384;6.908;2022-07-18T03:59:29;4.03;;;1.90;;
23684;SDS011;12020;51.384;6.908;2022-07-18T04:01:54;3.58;;;2.00;;
23684;SDS011;12020;51.384;6.908;2022-07-18T04:04:21;2.70;;;1.83;;
23684;SDS011;12020;51.384;6.908;2022-07-18T04:06:54;2.78;;;2.22;;
23684;SDS011;12020;51.384;6.908;2022-07-18T04:09:24;2.80;;;1.70;;
23684;SDS011;12020;51.384;6.908;2022-07-18T04:11:50;3.47;;;1.90;;
23684;SDS011;12020;51.384;6.908;2022-07-18T04:14:16;4.47;;;2.20;;
23684;SDS011;12020;51.384;6.908;2022-07-18T04:16:43;4.43;;;2.28;;
23684;SDS011;12020;51.384;6.908;2022-07-18T04:19:09;3.10;;;1.90;;
23684;SDS011;12020;51.384;6.908;2022-07-18T04:21:35;3.60;;;2.00;;
23684;SDS011;12020;51.384;6.908;2022-07-18T04:24:01;2.50;;;1.80;;
23684;SDS011;12020;51.384;6.908;2022-07-18T04:26:28;1.98;;;1.50;;
23684;SDS011;12020;51.384;6.908;2022-07-18T04:28:55;2.20;;;1.80;;
23684;SDS011;12020;51.384;6.908;2022-07-18T04:31:20;2.73;;;1.90;;
23684;SDS011;12020;51.384;6.908;2022-07-18T04:33:48;4.38;;;2.00;;
23684;SDS011;12020;51.384;6.908;2022-07-18T04:36:17;2.55;;;2.15;;
23684;SDS011;12020;51.384;6.908;2022-07-18T04:38:44;2.47;;;1.90;;
23684;SDS011;12020;51.384;6.908;2022-07-18T04:41:10;6.28;;;2.28;;
23684;SDS011;12020;51.384;6.908;2022-07-18T04:43:36;3.13;;;2.00;;
23684;SDS011;12020;51.384;6.908;2022-07-18T04:46:03;3.45;;;2.20;;
23684;SDS011;12020;51.384;6.908;2022-07-18T04:48:29;2.30;;;1.88;;
23684;SDS011;12020;51.384;6.908;2022-07-18T04:50:55;3.42;;;2.00;;
23684;SDS011;12020;51.384;6.908;2022-07-18T04:53:21;3.80;;;2.17;;
23684;SDS011;12020;51.384;6.908;2022-07-18T04:55:50;3.50;;;2.13;;
23684;SDS011;12020;51.384;6.908;2022-07-18T04:58:15;2.63;;;1.90;;
23684;SDS011;12020;51.384;6.908;2022-07-18T05:00:42;4.20;;;2.20;;
23684;SDS011;12020;51.384;6.908;2022-07-18T05:03:08;3.65;;;1.98;;
23684;SDS011;12020;51.384;6.908;2022-07-18T05:05:34;2.72;;;1.98;;
23684;SDS011;12020;51.384;6.908;2022-07-18T05:08:00;2.45;;;2.10;;
23684;SDS011;12020;51.384;6.908;2022-07-18T05:10:26;2.87;;;2.27;;
23684;SDS011;12020;51.384;6.908;2022-07-18T05:12:52;3.70;;;2.27;;
23684;SDS011;12020;51.384;6.908;2022-07-18T05:15:20;3.90;;;2.20;;
23684;SDS011;12020;51.384;6.908;2022-07-18T05:17:47;3.25;;;2.10;;
23684;SDS011;12020;51.384;6.908;2022-07-18T05:20:14;3.40;;;2.30;;
23684;SDS011;12020;51.384;6.908;2022-07-18T05:22:41;3.65;;;2.20;;
23684;SDS011;12020;51.384;6.908;2022-07-18T05:25:08;3.92;;;2.35;;
23684;SDS011;12020;51.384;6.908;2022-07-18T05:27:36;4.13;;;2.10;;
23684;SDS011;12020;51.384;6.908;2022-07-18T05:30:03;5.28;;;2.50;;
23684;SDS011;12020;51.384;6.908;2022-07-18T05:32:30;2.97;;;2.38;;
23684;SDS011;12020;51.384;6.908;2022-07-18T05:34:56;3.72;;;2.28;;
23684;SDS011;12020;51.384;6.908;2022-07-18T05:37:22;3.90;;;2.60;;
23684;SDS011;12020;51.384;6.908;2022-07-18T05:39:48;3.50;;;2.15;;
23684;SDS011;12020;51.384;6.908;2022-07-18T05:42:18;3.63;;;2.63;;
23684;SDS011;12020;51.384;6.908;2022-07-18T05:44:44;3.72;;;2.40;;
23684;SDS011;12020;51.384;6.908;2022-07-18T05:47:11;4.68;;;2.35;;
23684;SDS011;12020;51.384;6.908;2022-07-18T05:49:38;4.88;;;2.38;;
23684;SDS011;12020;51.384;6.908;2022-07-18T05:52:04;3.33;;;2.38;;
23684;SDS011;12020;51.384;6.908;2022-07-18T05:54:30;2.73;;;2.17;;
23684;SDS011;12020;51.384;6.908;2022-07-18T05:56:56;4.20;;;2.10;;
23684;SDS011;12020;51.384;6.908;2022-07-18T05:59:22;3.30;;;2.30;;
23684;SDS011;12020;51.384;6.908;2022-07-18T06:01:48;3.97;;;2.20;;
23684;SDS011;12020;51.384;6.908;2022-07-18T06:04:14;3.23;;;1.90;;
23684;SDS011;12020;51.384;6.908;2022-07-18T06:06:40;5.93;;;2.50;;
23684;SDS011;12020;51.384;6.908;2022-07-18T06:09:07;3.70;;;2.10;;
23684;SDS011;12020;51.384;6.908;2022-07-18T06:11:33;3.90;;;1.50;;
23684;SDS011;12020;51.384;6.908;2022-07-18T06:13:59;3.17;;;1.67;;
23684;SDS011;12020;51.384;6.908;2022-07-18T06:16:28;2.83;;;1.50;;
23684;SDS011;12020;51.384;6.908;2022-07-18T06:18:55;2.33;;;1.52;;
23684;SDS011;12020;51.384;6.908;2022-07-18T06:21:21;3.13;;;1.20;;
23684;SDS011;12020;51.384;6.908;2022-07-18T06:23:48;3.20;;;1.30;;
23684;SDS011;12020;51.384;6.908;2022-07-18T06:26:14;2.85;;;1.23;;
23684;SDS011;12020;51.384;6.908;2022-07-18T06:28:39;4.95;;;1.30;;
23684;SDS011;12020;51.384;6.908;2022-07-18T06:31:05;2.53;;;1.30;;
23684;SDS011;12020;51.384;6.908;2022-07-18T06:33:32;2.92;;;1.40;;
23684;SDS011;12020;51.384;6.908;2022-07-18T06:35:58;4.22;;;1.30;;
23684;SDS011;12020;51.384;6.908;2022-07-18T06:38:23;3.00;;;1.38;;
23684;SDS011;12020;51.384;6.908;2022-07-18T06:40:49;2.92;;;1.33;;
23684;SDS011;12020;51.384;6.908;2022-07-18T06:43:15;3.73;;;1.50;;
23684;SDS011;12020;51.384;6.908;2022-07-18T06:45:47;3.50;;;1.30;;
23684;SDS011;12020;51.384;6.908;2022-07-18T06:48:17;3.08;;;1.27;;
23684;SDS011;12020;51.384;6.908;2022-07-18T06:50:42;2.60;;;1.45;;
23684;SDS011;12020;51.384;6.908;2022-07-18T06:53:08;2.70;;;1.30;;
23684;SDS011;12020;51.384;6.908;2022-07-18T06:55:34;2.38;;;1.30;;
23684;SDS011;12020;51.384;6.908;2022-07-18T06:57:59;3.28;;;1.40;;
23684;SDS011;12020;51.384;6.908;2022-07-18T07:00:25;1.93;;;1.17;;
23684;SDS011;12020;51.384;6.908;2022-07-18T07:02:51;5.13;;;1.35;;
23684;SDS011;12020;51.384;6.908;2022-07-18T07:05:18;3.15;;;1.17;;
23684;SDS011;12020;51.384;6.908;2022-07-18T07:07:45;4.95;;;1.60;;
23684;SDS011;12020;51.384;6.908;2022-07-18T07:10:11;3.15;;;1.15;;
23684;SDS011;12020;51.384;6.908;2022-07-18T07:12:41;2.83;;;1.30;;
23684;SDS011;12020;51.384;6.908;2022-07-18T07:15:09;2.53;;;1.15;;
23684;SDS011;12020;51.384;6.908;2022-07-18T07:17:36;3.27;;;1.30;;
23684;SDS011;12020;51.384;6.908;2022-07-18T07:20:05;2.88;;;1.33;;
23684;SDS011;12020;51.384;6.908;2022-07-18T07:22:33;3.70;;;1.40;;
23684;SDS011;12020;51.384;6.908;2022-07-18T07:25:07;2.83;;;1.38;;
23684;SDS011;12020;51.384;6.908;2022-07-18T07:27:33;3.25;;;1.27;;
23684;SDS011;12020;51.384;6.908;2022-07-18T07:29:59;2.83;;;1.17;;
23684;SDS011;12020;51.384;6.908;2022-07-18T07:32:25;4.97;;;1.60;;
23684;SDS011;12020;51.384;6.908;2022-07-18T07:34:52;2.25;;;1.20;;
23684;SDS011;12020;51.384;6.908;2022-07-18T07:37:18;3.33;;;1.10;;
23684;SDS011;12020;51.384;6.908;2022-07-18T07:39:44;3.05;;;1.30;;
23684;SDS011;12020;51.384;6.908;2022-07-18T07:42:11;4.38;;;1.60;;
23684;SDS011;12020;51.384;6.908;2022-07-18T07:44:37;3.23;;;1.30;;
23684;SDS011;12020;51.384;6.908;2022-07-18T07:47:04;3.10;;;1.30;;
23684;SDS011;12020;51.384;6.908;2022-07-18T07:49:30;3.47;;;1.15;;
23684;SDS011;12020;51.384;6.908;2022-07-18T07:51:59;1.65;;;1.00;;
23684;SDS011;12020;51.384;6.908;2022-07-18T07:54:26;2.83;;;1.48;;
23684;SDS011;12020;51.384;6.908;2022-07-18T07:56:53;4.38;;;1.40;;
23684;SDS011;12020;51.384;6.908;2022-07-18T07:59:19;5.97;;;1.80;;
23684;SDS011;12020;51.384;6.908;2022-07-18T08:01:45;3.20;;;1.30;;
23684;SDS011;12020;51.384;6.908;2022-07-18T08:04:11;2.60;;;1.27;;
23684;SDS011;12020;51.384;6.908;2022-07-18T08:06:37;3.97;;;1.40;;
23684;SDS011;12020;51.384;6.908;2022-07-18T08:09:03;3.13;;;1.25;;
23684;SDS011;12020;51.384;6.908;2022-07-18T08:11:31;2.05;;;1.20;;
23684;SDS011;12020;51.384;6.908;2022-07-18T08:13:57;2.88;;;1.50;;
23684;SDS011;12020;51.384;6.908;2022-07-18T08:16:24;3.60;;;1.20;;
23684;SDS011;12020;51.384;6.908;2022-07-18T08:18:51;2.45;;;1.25;;
23684;SDS011;12020;51.384;6.908;2022-07-18T08:21:17;4.07;;;1.20;;
23684;SDS011;12020;51.384;6.908;2022-07-18T08:23:43;2.47;;;1.10;;
23684;SDS011;12020;51.384;6.908;2022-07-18T08:26:10;2.50;;;1.00;;
23684;SDS011;12020;51.384;6.908;2022-07-18T08:28:35;2.25;;;1.10;;
23684;SDS011;12020;51.384;6.908;2022-07-18T08:31:01;1.67;;;1.07;;
23684;SDS011;12020;51.384;6.908;2022-07-18T08:33:31;2.22;;;1.08;;
23684;SDS011;12020;51.384;6.908;2022-07-18T08:36:03;2.58;;;1.23;;
23684;SDS011;12020;51.384;6.908;2022-07-18T08:40:58;2.85;;;1.13;;
23684;SDS011;12020;51.384;6.908;2022-07-18T08:43:25;5.82;;;1.30;;
23684;SDS011;12020;51.384;6.908;2022-07-18T08:45:55;8.10;;;1.65;;
23684;SDS011;12020;51.384;6.908;2022-07-18T08:48:24;2.65;;;1.15;;
23684;SDS011;12020;51.384;6.908;2022-07-18T08:50:51;2.03;;;1.20;;
23684;SDS011;12020;51.384;6.908;2022-07-18T08:53:17;3.50;;;1.47;;
23684;SDS011;12020;51.384;6.908;2022-07-18T08:55:45;5.72;;;1.40;;
23684;SDS011;12020;51.384;6.908;2022-07-18T08:58:12;3.67;;;1.20;;
23684;SDS011;12020;51.384;6.908;2022-07-18T09:00:39;2.22;;;1.25;;
23684;SDS011;12020;51.384;6.908;2022-07-18T09:03:07;2.67;;;1.40;;
23684;SDS011;12020;51.384;6.908;2022-07-18T09:05:33;1.77;;;1.15;;
23684;SDS011;12020;51.384;6.908;2022-07-18T09:08:15;2.30;;;1.40;;
23684;SDS011;12020;51.384;6.908;2022-07-18T09:10:50;2.53;;;1.23;;
23684;SDS011;12020;51.384;6.908;2022-07-18T09:13:18;3.00;;;1.40;;
23684;SDS011;12020;51.384;6.908;2022-07-18T09:15:57;7.87;;;2.10;;
23684;SDS011;12020;51.384;6.908;2022-07-18T09:18:28;4.47;;;1.57;;
23684;SDS011;12020;51.384;6.908;2022-07-18T09:21:03;5.07;;;1.48;;
23684;SDS011;12020;51.384;6.908;2022-07-18T09:23:32;4.35;;;1.50;;
23684;SDS011;12020;51.384;6.908;2022-07-18T09:25:59;5.77;;;1.77;;
23684;SDS011;12020;51.384;6.908;2022-07-18T09:28:26;5.43;;;1.50;;
23684;SDS011;12020;51.384;6.908;2022-07-18T09:30:53;3.90;;;1.30;;
23684;SDS011;12020;51.384;6.908;2022-07-18T09:33:19;5.18;;;1.50;;
23684;SDS011;12020;51.384;6.908;2022-07-18T09:35:50;2.17;;;1.40;;
23684;SDS011;12020;51.384;6.908;2022-07-18T09:38:22;3.35;;;1.60;;
23684;SDS011;12020;51.384;6.908;2022-07-18T09:40:55;3.17;;;1.42;;
23684;SDS011;12020;51.384;6.908;2022-07-18T09:43:24;2.05;;;1.27;;
23684;SDS011;12020;51.384;6.908;2022-07-18T09:45:52;4.00;;;1.55;;
23684;SDS011;12020;51.384;6.908;2022-07-18T09:48:23;4.43;;;1.48;;
23684;SDS011;12020;51.384;6.908;2022-07-18T09:53:24;4.50;;;1.30;;
23684;SDS011;12020;51.384;6.908;2022-07-18T09:55:55;3.30;;;1.25;;
23684;SDS011;12020;51.384;6.908;2022-07-18T09:58:27;3.23;;;1.50;;
23684;SDS011;12020;51.384;6.908;2022-07-18T10:01:22;4.25;;;1.27;;
23684;SDS011;12020;51.384;6.908;2022-07-18T10:03:49;2.35;;;1.30;;
23684;SDS011;12020;51.384;6.908;2022-07-18T10:06:15;2.10;;;1.20;;
23684;SDS011;12020;51.384;6.908;2022-07-18T10:08:43;3.38;;;1.40;;
23684;SDS011;12020;51.384;6.908;2022-07-18T10:11:09;2.47;;;1.10;;
23684;SDS011;12020;51.384;6.908;2022-07-18T10:13:35;2.10;;;1.40;;
23684;SDS011;12020;51.384;6.908;2022-07-18T10:16:02;2.95;;;1.20;;
23684;SDS011;12020;51.384;6.908;2022-07-18T10:18:34;2.63;;;1.38;;
23684;SDS011;12020;51.384;6.908;2022-07-18T10:21:11;2.97;;;1.20;;
23684;SDS011;12020;51.384;6.908;2022-07-18T10:29:23;2.60;;;1.40;;
23684;SDS011;12020;51.384;6.908;2022-07-18T10:34:13;3.47;;;1.33;;
23684;SDS011;12020;51.384;6.908;2022-07-18T10:36:42;3.28;;;1.52;;
23684;SDS011;12020;51.384;6.908;2022-07-18T10:57:33;6.70;;;1.90;;
23684;SDS011;12020;51.384;6.908;2022-07-18T11:02:43;3.03;;;1.50;;
23684;SDS011;12020;51.384;6.908;2022-07-18T11:13:22;2.00;;;1.30;;
23684;SDS011;12020;51.384;6.908;2022-07-18T11:16:11;3.20;;;1.50;;
23684;SDS011;12020;51.384;6.908;2022-07-18T11:26:28;3.53;;;1.58;;
23684;SDS011;12020;51.384;6.908;2022-07-18T11:29:09;2.03;;;1.20;;
23684;SDS011;12020;51.384;6.908;2022-07-18T11:34:11;3.22;;;1.58;;
23684;SDS011;12020;51.384;6.908;2022-07-18T11:36:38;1.80;;;1.33;;
23684;SDS011;12020;51.384;6.908;2022-07-18T11:39:06;3.70;;;1.40;;
23684;SDS011;12020;51.384;6.908;2022-07-18T11:41:32;5.38;;;1.80;;
23684;SDS011;12020;51.384;6.908;2022-07-18T11:44:00;9.37;;;2.70;;
23684;SDS011;12020;51.384;6.908;2022-07-18T11:46:27;3.55;;;1.80;;
23684;SDS011;12020;51.384;6.908;2022-07-18T11:49:01;3.05;;;1.50;;
23684;SDS011;12020;51.384;6.908;2022-07-18T11:51:36;4.53;;;1.50;;
23684;SDS011;12020;51.384;6.908;2022-07-18T11:54:03;3.30;;;1.55;;
23684;SDS011;12020;51.384;6.908;2022-07-18T11:56:30;3.22;;;1.60;;
23684;SDS011;12020;51.384;6.908;2022-07-18T11:58:56;2.85;;;1.70;;
23684;SDS011;12020;51.384;6.908;2022-07-18T12:01:33;1.95;;;1.48;;
23684;SDS011;12020;51.384;6.908;2022-07-18T12:03:59;3.97;;;1.80;;
23684;SDS011;12020;51.384;6.908;2022-07-18T12:06:28;3.92;;;1.50;;
23684;SDS011;12020;51.384;6.908;2022-07-18T12:08:59;4.28;;;1.50;;
23684;SDS011;12020;51.384;6.908;2022-07-18T12:11:29;4.18;;;1.42;;
23684;SDS011;12020;51.384;6.908;2022-07-18T12:14:00;3.83;;;1.65;;
23684;SDS011;12020;51.384;6.908;2022-07-18T12:16:46;2.93;;;1.63;;
23684;SDS011;12020;51.384;6.908;2022-07-18T12:19:31;4.00;;;1.70;;
23684;SDS011;12020;51.384;6.908;2022-07-18T12:22:07;3.13;;;1.50;;
23684;SDS011;12020;51.384;6.908;2022-07-18T12:24:53;3.70;;;1.60;;
23684;SDS011;12020;51.384;6.908;2022-07-18T12:27:25;3.58;;;1.70;;
23684;SDS011;12020;51.384;6.908;2022-07-18T12:30:05;3.92;;;1.48;;
23684;SDS011;12020;51.384;6.908;2022-07-18T12:35:33;4.60;;;1.70;;
23684;SDS011;12020;51.384;6.908;2022-07-18T12:38:10;4.30;;;1.75;;
23684;SDS011;12020;51.384;6.908;2022-07-18T12:43:10;3.20;;;1.50;;
23684;SDS011;12020;51.384;6.908;2022-07-18T12:45:38;2.93;;;1.50;;
23684;SDS011;12020;51.384;6.908;2022-07-18T12:48:05;4.20;;;1.40;;
23684;SDS011;12020;51.384;6.908;2022-07-18T12:50:34;4.32;;;1.70;;
23684;SDS011;12020;51.384;6.908;2022-07-18T12:53:01;3.65;;;1.52;;
23684;SDS011;12020;51.384;6.908;2022-07-18T12:55:26;3.70;;;1.73;;
23684;SDS011;12020;51.384;6.908;2022-07-18T12:57:54;2.85;;;1.50;;
23684;SDS011;12020;51.384;6.908;2022-07-18T13:00:20;3.72;;;1.60;;
23684;SDS011;12020;51.384;6.908;2022-07-18T13:02:46;2.50;;;1.40;;
23684;SDS011;12020;51.384;6.908;2022-07-18T13:05:12;3.33;;;1.30;;
23684;SDS011;12020;51.384;6.908;2022-07-18T13:07:38;4.93;;;1.63;;
23684;SDS011;12020;51.384;6.908;2022-07-18T13:10:04;2.42;;;1.30;;
23684;SDS011;12020;51.384;6.908;2022-07-18T13:12:31;1.90;;;1.40;;
23684;SDS011;12020;51.384;6.908;2022-07-18T13:14:58;4.95;;;1.60;;
23684;SDS011;12020;51.384;6.908;2022-07-18T13:17:24;2.88;;;1.40;;
23684;SDS011;12020;51.384;6.908;2022-07-18T13:19:50;2.72;;;1.30;;
23684;SDS011;12020;51.384;6.908;2022-07-18T13:22:16;3.55;;;1.55;;
23684;SDS011;12020;51.384;6.908;2022-07-18T13:24:43;3.92;;;1.52;;
23684;SDS011;12020;51.384;6.908;2022-07-18T13:27:09;3.80;;;1.35;;
23684;SDS011;12020;51.384;6.908;2022-07-18T13:29:35;2.78;;;1.25;;
23684;SDS011;12020;51.384;6.908;2022-07-18T13:32:02;3.15;;;1.40;;
23684;SDS011;12020;51.384;6.908;2022-07-18T13:34:28;3.00;;;1.52;;
23684;SDS011;12020;51.384;6.908;2022-07-18T13:36:56;3.25;;;1.58;;
23684;SDS011;12020;51.384;6.908;2022-07-18T13:39:22;3.53;;;1.70;;
23684;SDS011;12020;51.384;6.908;2022-07-18T13:41:48;1.97;;;1.30;;
23684;SDS011;12020;51.384;6.908;2022-07-18T13:44:15;2.22;;;1.13;;
23684;SDS011;12020;51.384;6.908;2022-07-18T13:46:41;2.75;;;1.45;;
23684;SDS011;12020;51.384;6.908;2022-07-18T13:49:08;4.55;;;1.60;;
23684;SDS011;12020;51.384;6.908;2022-07-18T13:51:34;2.75;;;1.30;;
23684;SDS011;12020;51.384;6.908;2022-07-18T13:54:02;2.33;;;1.35;;
23684;SDS011;12020;51.384;6.908;2022-07-18T13:56:29;4.28;;;1.35;;
23684;SDS011;12020;51.384;6.908;2022-07-18T13:58:55;2.53;;;1.40;;
23684;SDS011;12020;51.384;6.908;2022-07-18T14:01:21;3.42;;;1.42;;
23684;SDS011;12020;51.384;6.908;2022-07-18T14:03:49;3.50;;;1.50;;
23684;SDS011;12020;51.384;6.908;2022-07-18T14:06:16;3.80;;;1.40;;
23684;SDS011;12020;51.384;6.908;2022-07-18T14:08:45;3.97;;;1.55;;
23684;SDS011;12020;51.384;6.908;2022-07-18T14:11:11;3.28;;;1.30;;
23684;SDS011;12020;51.384;6.908;2022-07-18T14:13:37;2.83;;;1.50;;
23684;SDS011;12020;51.384;6.908;2022-07-18T14:16:07;3.30;;;1.40;;
23684;SDS011;12020;51.384;6.908;2022-07-18T14:18:34;2.83;;;1.60;;
23684;SDS011;12020;51.384;6.908;2022-07-18T14:21:03;2.40;;;1.42;;
23684;SDS011;12020;51.384;6.908;2022-07-18T14:23:30;3.30;;;1.53;;
23684;SDS011;12020;51.384;6.908;2022-07-18T14:25:56;3.47;;;1.35;;
23684;SDS011;12020;51.384;6.908;2022-07-18T14:28:22;4.03;;;1.47;;
23684;SDS011;12020;51.384;6.908;2022-07-18T14:30:48;3.17;;;1.53;;
23684;SDS011;12020;51.384;6.908;2022-07-18T14:33:14;5.43;;;1.60;;
23684;SDS011;12020;51.384;6.908;2022-07-18T14:35:40;3.03;;;1.50;;
23684;SDS011;12020;51.384;6.908;2022-07-18T14:38:06;4.30;;;1.50;;
23684;SDS011;12020;51.384;6.908;2022-07-18T14:40:32;6.10;;;1.70;;
23684;SDS011;12020;51.384;6.908;2022-07-18T14:42:59;3.90;;;1.70;;
23684;SDS011;12020;51.384;6.908;2022-07-18T14:45:25;4.20;;;1.50;;
23684;SDS011;12020;51.384;6.908;2022-07-18T14:47:51;2.42;;;1.42;;
23684;SDS011;12020;51.384;6.908;2022-07-18T14:50:18;3.50;;;1.63;;
23684;SDS011;12020;51.384;6.908;2022-07-18T14:52:51;4.53;;;1.40;;
23684;SDS011;12020;51.384;6.908;2022-07-18T14:55:17;3.63;;;1.30;;
23684;SDS011;12020;51.384;6.908;2022-07-18T14:57:42;3.10;;;1.30;;
23684;SDS011;12020;51.384;6.908;2022-07-18T15:00:08;3.50;;;1.30;;
23684;SDS011;12020;51.384;6.908;2022-07-18T15:02:40;3.15;;;1.40;;
23684;SDS011;12020;51.384;6.908;2022-07-18T15:08:24;2.83;;;1.60;;
23684;SDS011;12020;51.384;6.908;2022-07-18T15:10:50;3.58;;;1.60;;
23684;SDS011;12020;51.384;6.908;2022-07-18T15:13:17;3.78;;;1.40;;
23684;SDS011;12020;51.384;6.908;2022-07-18T15:15:57;2.30;;;1.30;;
23684;SDS011;12020;51.384;6.908;2022-07-18T15:18:37;3.88;;;1.40;;
23684;SDS011;12020;51.384;6.908;2022-07-18T15:21:28;3.35;;;1.50;;
23684;SDS011;12020;51.384;6.908;2022-07-18T15:24:03;3.53;;;1.60;;
23684;SDS011;12020;51.384;6.908;2022-07-18T15:26:35;4.38;;;1.48;;
23684;SDS011;12020;51.384;6.908;2022-07-18T15:29:11;1.55;;;1.20;;
23684;SDS011;12020;51.384;6.908;2022-07-18T15:31:39;2.72;;;1.33;;
23684;SDS011;12020;51.384;6.908;2022-07-18T15:34:08;3.90;;;1.35;;
23684;SDS011;12020;51.384;6.908;2022-07-18T15:36:34;2.13;;;1.40;;
23684;SDS011;12020;51.384;6.908;2022-07-18T15:39:02;3.83;;;1.33;;
23684;SDS011;12020;51.384;6.908;2022-07-18T15:41:29;4.20;;;1.60;;
23684;SDS011;12020;51.384;6.908;2022-07-18T15:43:55;2.45;;;1.30;;
23684;SDS011;12020;51.384;6.908;2022-07-18T15:46:23;3.75;;;1.30;;
23684;SDS011;12020;51.384;6.908;2022-07-18T15:48:55;2.35;;;1.60;;
23684;SDS011;12020;51.384;6.908;2022-07-18T15:51:27;5.30;;;1.52;;